createdAt,value
2019-03-27T00:00:55.360Z,9.21
2019-03-27T00:02:00.893Z,9.13
2019-03-27T00:03:06.379Z,9.15
2019-03-27T00:04:11.890Z,9.15
2019-03-27T00:05:17.403Z,9.04
2019-03-27T00:06:22.910Z,9.05
2019-03-27T00:07:28.430Z,9.04
2019-03-27T00:08:33.923Z,8.97
2019-03-27T00:09:39.436Z,9.05
2019-03-27T00:10:44.941Z,8.96
2019-03-27T00:11:50.453Z,9.01
2019-03-27T00:12:55.954Z,8.97
2019-03-27T00:14:01.463Z,8.96
2019-03-27T00:15:13.391Z,8.88
2019-03-27T00:16:12.484Z,8.90
2019-03-27T00:17:18.006Z,8.93
2019-03-27T00:18:23.512Z,8.87
2019-03-27T00:19:29.020Z,8.88
2019-03-27T00:20:34.517Z,8.83
2019-03-27T00:21:40.027Z,8.81
2019-03-27T00:22:45.535Z,8.84
2019-03-27T00:23:51.043Z,8.79
2019-03-27T00:24:56.549Z,8.83
2019-03-27T00:26:02.074Z,8.86
2019-03-27T00:27:07.569Z,8.86
2019-03-27T00:28:13.075Z,8.78
2019-03-27T00:29:18.585Z,8.72
2019-03-27T00:30:24.093Z,8.75
2019-03-27T00:31:29.598Z,8.71
2019-03-27T00:32:35.115Z,8.65
2019-03-27T00:33:40.614Z,8.69
2019-03-27T00:34:46.137Z,8.71
2019-03-27T00:35:51.641Z,8.68
2019-03-27T00:36:57.145Z,8.72
2019-03-27T00:38:02.679Z,8.71
2019-03-27T00:39:08.158Z,8.69
2019-03-27T00:40:13.668Z,8.69
2019-03-27T00:41:19.171Z,8.66
2019-03-27T00:42:24.682Z,8.65
2019-03-27T00:43:30.192Z,8.65
2019-03-27T00:44:35.701Z,8.65
2019-03-27T00:45:41.208Z,8.62
2019-03-27T00:46:46.723Z,8.62
2019-03-27T00:47:52.229Z,8.47
2019-03-27T00:48:57.730Z,8.54
2019-03-27T00:50:03.238Z,8.58
2019-03-27T00:51:08.752Z,8.58
2019-03-27T00:52:14.262Z,8.51
2019-03-27T00:53:19.764Z,8.50
2019-03-27T00:54:25.270Z,8.50
2019-03-27T00:55:30.782Z,8.54
2019-03-27T00:56:36.291Z,8.45
2019-03-27T00:57:41.799Z,8.44
2019-03-27T00:58:47.307Z,8.44
2019-03-27T00:59:52.829Z,8.39
2019-03-27T01:00:58.321Z,8.33
2019-03-27T01:02:03.833Z,8.28
2019-03-27T01:03:09.338Z,8.37
2019-03-27T01:04:14.842Z,8.33
2019-03-27T01:05:20.350Z,8.42
2019-03-27T01:06:25.859Z,8.32
2019-03-27T01:07:31.370Z,8.29
2019-03-27T01:08:36.884Z,8.30
2019-03-27T01:09:42.386Z,8.28
2019-03-27T01:10:47.892Z,8.28
2019-03-27T01:11:53.399Z,8.21
2019-03-27T01:12:58.921Z,8.20
2019-03-27T01:14:04.428Z,8.15
2019-03-27T01:15:09.934Z,8.28
2019-03-27T01:16:15.433Z,8.15
2019-03-27T01:17:20.936Z,8.14
2019-03-27T01:18:26.451Z,8.14
2019-03-27T01:19:31.961Z,8.10
2019-03-27T01:20:37.467Z,8.00
2019-03-27T01:21:42.970Z,8.02
2019-03-27T01:22:48.483Z,8.02
2019-03-27T01:23:53.992Z,7.93
2019-03-27T01:24:59.497Z,7.94
2019-03-27T01:26:05.002Z,8.00
2019-03-27T01:27:10.509Z,7.92
2019-03-27T01:28:16.024Z,7.93
2019-03-27T01:29:21.525Z,7.90
2019-03-27T01:30:27.038Z,7.79
2019-03-27T01:31:32.539Z,7.85
2019-03-27T01:32:38.054Z,7.87
2019-03-27T01:33:43.557Z,7.82
2019-03-27T01:34:49.064Z,7.78
2019-03-27T01:35:54.569Z,7.72
2019-03-27T01:37:00.098Z,7.69
2019-03-27T01:38:05.606Z,7.67
2019-03-27T01:39:11.096Z,7.69
2019-03-27T01:40:16.605Z,7.71
2019-03-27T01:41:22.112Z,7.58
2019-03-27T01:42:27.618Z,7.66
2019-03-27T01:43:33.126Z,7.60
2019-03-27T01:44:38.629Z,7.62
2019-03-27T01:45:52.848Z,7.67
2019-03-27T01:46:49.649Z,7.59
2019-03-27T01:47:55.158Z,7.62
2019-03-27T01:49:00.667Z,7.56
2019-03-27T01:50:06.179Z,7.62
2019-03-27T01:51:11.690Z,7.53
2019-03-27T01:52:17.188Z,7.63
2019-03-27T01:53:22.694Z,7.52
2019-03-27T01:54:28.199Z,7.60
2019-03-27T01:55:33.708Z,7.58
2019-03-27T01:56:39.218Z,7.58
2019-03-27T01:57:44.741Z,7.42
2019-03-27T01:58:50.241Z,7.52
2019-03-27T01:59:55.740Z,7.45
2019-03-27T02:01:01.253Z,7.45
2019-03-27T02:02:06.752Z,7.40
2019-03-27T02:03:12.260Z,7.41
2019-03-27T02:04:17.770Z,7.35
2019-03-27T02:05:23.280Z,7.32
2019-03-27T02:06:28.782Z,7.34
2019-03-27T02:07:34.290Z,7.31
2019-03-27T02:08:39.795Z,7.32
2019-03-27T02:09:45.303Z,7.34
2019-03-27T02:10:50.811Z,7.32
2019-03-27T02:11:56.324Z,7.27
2019-03-27T02:13:01.831Z,7.35
2019-03-27T02:14:07.336Z,7.40
2019-03-27T02:15:12.852Z,7.35
2019-03-27T02:16:18.344Z,7.32
2019-03-27T02:17:23.869Z,7.27
2019-03-27T02:18:29.360Z,7.32
2019-03-27T02:19:34.869Z,7.32
2019-03-27T02:20:40.371Z,7.22
2019-03-27T02:21:45.887Z,7.24
2019-03-27T02:22:51.398Z,7.23
2019-03-27T02:23:56.896Z,7.27
2019-03-27T02:25:02.413Z,7.27
2019-03-27T02:26:07.915Z,7.20
2019-03-27T02:27:13.420Z,7.26
2019-03-27T02:28:18.929Z,7.23
2019-03-27T02:29:24.446Z,7.23
2019-03-27T02:30:29.941Z,7.22
2019-03-27T02:31:35.453Z,7.22
2019-03-27T02:32:40.954Z,7.19
2019-03-27T02:33:46.474Z,7.22
2019-03-27T02:34:51.971Z,7.24
2019-03-27T02:35:57.486Z,7.22
2019-03-27T02:37:02.989Z,7.26
2019-03-27T02:38:08.493Z,7.26
2019-03-27T02:39:14.010Z,7.24
2019-03-27T02:40:19.517Z,7.22
2019-03-27T02:41:25.024Z,7.26
2019-03-27T02:42:30.543Z,7.26
2019-03-27T02:43:36.028Z,7.27
2019-03-27T02:44:41.535Z,7.29
2019-03-27T02:45:47.042Z,7.31
2019-03-27T02:46:52.555Z,7.38
2019-03-27T02:47:58.074Z,7.34
2019-03-27T02:49:03.562Z,7.35
2019-03-27T02:50:09.079Z,7.34
2019-03-27T02:51:14.634Z,7.34
2019-03-27T02:52:20.089Z,7.34
2019-03-27T02:53:25.593Z,7.41
2019-03-27T02:54:31.095Z,7.29
2019-03-27T02:55:36.609Z,7.34
2019-03-27T02:56:42.113Z,7.26
2019-03-27T02:57:47.636Z,7.27
2019-03-27T02:58:53.139Z,7.31
2019-03-27T02:59:58.649Z,7.26
2019-03-27T03:01:04.210Z,7.31
2019-03-27T03:02:09.646Z,7.32
2019-03-27T03:03:15.157Z,7.31
2019-03-27T03:04:20.663Z,7.29
2019-03-27T03:05:26.185Z,7.34
2019-03-27T03:06:31.681Z,7.32
2019-03-27T03:07:37.190Z,7.27
2019-03-27T03:08:42.696Z,7.31
2019-03-27T03:09:48.197Z,7.29
2019-03-27T03:10:53.740Z,7.31
2019-03-27T03:11:59.221Z,7.23
2019-03-27T03:13:04.724Z,7.23
2019-03-27T03:14:10.230Z,7.26
2019-03-27T03:15:15.737Z,7.23
2019-03-27T03:16:21.247Z,7.17
2019-03-27T03:17:26.764Z,7.16
2019-03-27T03:18:32.255Z,7.08
2019-03-27T03:19:37.762Z,7.08
2019-03-27T03:20:43.273Z,7.15
2019-03-27T03:21:48.784Z,7.05
2019-03-27T03:22:54.286Z,7.02
2019-03-27T03:23:59.794Z,7.16
2019-03-27T03:25:05.306Z,7.08
2019-03-27T03:26:10.819Z,7.02
2019-03-27T03:27:16.317Z,7.09
2019-03-27T03:28:21.825Z,7.02
2019-03-27T03:29:27.333Z,7.05
2019-03-27T03:30:32.893Z,6.99
2019-03-27T03:31:38.355Z,7.01
2019-03-27T03:32:43.851Z,6.97
2019-03-27T03:33:49.367Z,7.07
2019-03-27T03:34:54.870Z,7.07
2019-03-27T03:36:00.372Z,6.90
2019-03-27T03:37:05.886Z,7.05
2019-03-27T03:38:11.406Z,6.98
2019-03-27T03:39:16.901Z,6.94
2019-03-27T03:40:22.407Z,6.89
2019-03-27T03:41:27.915Z,6.94
2019-03-27T03:42:33.421Z,6.94
2019-03-27T03:43:38.932Z,6.91
2019-03-27T03:44:44.429Z,6.97
2019-03-27T03:45:49.950Z,6.91
2019-03-27T03:47:00.030Z,6.94
2019-03-27T03:48:00.949Z,6.91
2019-03-27T03:49:06.464Z,6.95
2019-03-27T03:50:11.980Z,6.86
2019-03-27T03:51:17.494Z,6.87
2019-03-27T03:52:22.982Z,6.80
2019-03-27T03:53:28.485Z,6.86
2019-03-27T03:54:33.993Z,6.81
2019-03-27T03:55:39.502Z,6.84
2019-03-27T03:56:45.006Z,6.80
2019-03-27T03:57:50.510Z,6.87
2019-03-27T03:58:56.026Z,6.81
2019-03-27T04:00:01.602Z,6.79
2019-03-27T04:01:07.040Z,6.86
2019-03-27T04:02:12.543Z,6.84
2019-03-27T04:03:18.045Z,6.90
2019-03-27T04:04:23.578Z,6.86
2019-03-27T04:05:29.062Z,6.89
2019-03-27T04:06:34.566Z,6.95
2019-03-27T04:07:40.082Z,6.90
2019-03-27T04:08:45.581Z,6.94
2019-03-27T04:09:51.098Z,6.90
2019-03-27T04:10:56.596Z,6.91
2019-03-27T04:12:02.100Z,6.94
2019-03-27T04:13:07.609Z,6.95
2019-03-27T04:14:13.116Z,6.91
2019-03-27T04:15:18.627Z,6.89
2019-03-27T04:16:24.134Z,6.94
2019-03-27T04:17:29.633Z,6.95
2019-03-27T04:18:35.154Z,6.98
2019-03-27T04:19:40.649Z,7.05
2019-03-27T04:20:46.158Z,6.98
2019-03-27T04:21:51.675Z,6.99
2019-03-27T04:22:57.172Z,6.97
2019-03-27T04:24:02.680Z,6.99
2019-03-27T04:25:08.186Z,6.94
2019-03-27T04:26:13.696Z,7.12
2019-03-27T04:27:19.202Z,7.08
2019-03-27T04:28:24.705Z,7.02
2019-03-27T04:29:30.216Z,7.01
2019-03-27T04:30:35.723Z,7.05
2019-03-27T04:31:41.263Z,6.98
2019-03-27T04:32:46.732Z,7.04
2019-03-27T04:33:52.249Z,7.02
2019-03-27T04:34:57.746Z,6.99
2019-03-27T04:36:03.253Z,6.97
2019-03-27T04:37:08.775Z,7.07
2019-03-27T04:38:14.276Z,7.05
2019-03-27T04:39:19.780Z,7.13
2019-03-27T04:40:25.801Z,7.17
2019-03-27T04:41:30.787Z,7.16
2019-03-27T04:42:36.300Z,7.17
2019-03-27T04:43:41.806Z,7.22
2019-03-27T04:44:47.308Z,7.09
2019-03-27T04:45:52.820Z,7.08
2019-03-27T04:46:58.352Z,7.17
2019-03-27T04:48:03.831Z,7.09
2019-03-27T04:49:09.340Z,7.05
2019-03-27T04:50:14.849Z,7.02
2019-03-27T04:51:20.350Z,7.05
2019-03-27T04:52:25.858Z,7.07
2019-03-27T04:53:31.374Z,7.02
2019-03-27T04:54:36.892Z,6.99
2019-03-27T04:55:42.386Z,7.04
2019-03-27T04:56:47.887Z,7.09
2019-03-27T04:57:53.391Z,7.02
2019-03-27T04:58:58.909Z,7.01
2019-03-27T05:00:04.412Z,6.99
2019-03-27T05:01:09.918Z,7.02
2019-03-27T05:02:15.422Z,6.99
2019-03-27T05:03:20.939Z,7.01
2019-03-27T05:04:26.444Z,6.97
2019-03-27T05:05:31.933Z,6.97
2019-03-27T05:06:37.448Z,6.97
2019-03-27T05:07:42.958Z,6.91
2019-03-27T05:08:48.464Z,6.91
2019-03-27T05:09:53.968Z,6.87
2019-03-27T05:10:59.514Z,6.98
2019-03-27T05:12:04.980Z,7.04
2019-03-27T05:13:10.492Z,7.01
2019-03-27T05:14:15.998Z,7.02
2019-03-27T05:15:21.505Z,7.09
2019-03-27T05:16:27.014Z,7.12
2019-03-27T05:17:45.322Z,7.07
2019-03-27T05:18:38.028Z,7.08
2019-03-27T05:19:43.537Z,7.05
2019-03-27T05:20:49.046Z,7.05
2019-03-27T05:21:54.556Z,7.04
2019-03-27T05:23:00.051Z,7.08
2019-03-27T05:24:05.561Z,7.05
2019-03-27T05:25:11.075Z,7.09
2019-03-27T05:26:16.578Z,7.12
2019-03-27T05:27:22.090Z,7.17
2019-03-27T05:28:27.590Z,7.16
2019-03-27T05:29:33.096Z,7.15
2019-03-27T05:30:38.605Z,7.29
2019-03-27T05:31:44.127Z,7.34
2019-03-27T05:32:49.668Z,7.27
2019-03-27T05:33:55.181Z,7.29
2019-03-27T05:35:00.685Z,7.34
2019-03-27T05:36:06.170Z,7.40
2019-03-27T05:37:11.691Z,7.38
2019-03-27T05:38:17.175Z,7.40
2019-03-27T05:39:22.701Z,7.41
2019-03-27T05:40:28.195Z,7.42
2019-03-27T05:41:33.726Z,7.44
2019-03-27T05:42:39.189Z,7.47
2019-03-27T05:43:44.685Z,7.42
2019-03-27T05:44:50.210Z,7.45
2019-03-27T05:45:55.707Z,7.40
2019-03-27T05:47:01.210Z,7.47
2019-03-27T05:48:06.719Z,7.59
2019-03-27T05:49:12.227Z,7.47
2019-03-27T05:50:17.743Z,7.50
2019-03-27T05:51:23.233Z,7.60
2019-03-27T05:52:28.749Z,7.58
2019-03-27T05:53:34.253Z,7.60
2019-03-27T05:54:39.761Z,7.60
2019-03-27T05:55:45.271Z,7.56
2019-03-27T05:56:50.782Z,7.56
2019-03-27T05:57:56.284Z,7.55
2019-03-27T05:59:01.790Z,7.52
2019-03-27T06:00:07.305Z,7.53
2019-03-27T06:01:12.806Z,7.52
2019-03-27T06:02:18.314Z,7.56
2019-03-27T06:03:23.817Z,7.56
2019-03-27T06:04:29.328Z,7.58
2019-03-27T06:05:34.833Z,7.62
2019-03-27T06:06:40.347Z,7.56
2019-03-27T06:07:45.862Z,7.60
2019-03-27T06:08:51.362Z,7.55
2019-03-27T06:09:56.866Z,7.59
2019-03-27T06:11:02.371Z,7.67
2019-03-27T06:12:07.878Z,7.60
2019-03-27T06:13:13.386Z,7.59
2019-03-27T06:14:18.899Z,7.71
2019-03-27T06:15:24.398Z,7.72
2019-03-27T06:16:29.905Z,7.81
2019-03-27T06:17:35.414Z,7.81
2019-03-27T06:18:40.923Z,7.81
2019-03-27T06:19:46.428Z,8.02
2019-03-27T06:20:51.935Z,8.03
2019-03-27T06:21:57.451Z,8.10
2019-03-27T06:23:02.950Z,8.10
2019-03-27T06:24:08.463Z,8.21
2019-03-27T06:25:13.964Z,8.21
2019-03-27T06:26:19.475Z,8.28
2019-03-27T06:27:24.978Z,8.20
2019-03-27T06:28:30.489Z,8.29
2019-03-27T06:29:35.992Z,8.30
2019-03-27T06:30:41.507Z,8.32
2019-03-27T06:31:47.008Z,8.39
2019-03-27T06:32:52.523Z,8.39
2019-03-27T06:33:58.028Z,8.50
2019-03-27T06:35:03.539Z,8.51
2019-03-27T06:36:09.046Z,8.45
2019-03-27T06:37:14.551Z,8.55
2019-03-27T06:38:20.056Z,8.55
2019-03-27T06:39:25.610Z,8.57
2019-03-27T06:40:31.068Z,8.58
2019-03-27T06:41:36.569Z,8.57
2019-03-27T06:42:42.089Z,8.60
2019-03-27T06:43:47.593Z,8.63
2019-03-27T06:44:53.115Z,8.68
2019-03-27T06:45:58.670Z,8.69
2019-03-27T06:47:04.119Z,8.72
2019-03-27T06:48:09.618Z,8.65
2019-03-27T06:49:15.127Z,8.81
2019-03-27T06:50:20.648Z,8.72
2019-03-27T06:51:39.206Z,8.87
2019-03-27T06:52:31.656Z,8.79
2019-03-27T06:53:37.164Z,8.79
2019-03-27T06:54:42.678Z,8.87
2019-03-27T06:55:48.183Z,8.81
2019-03-27T06:56:53.687Z,8.88
2019-03-27T06:57:59.216Z,8.87
2019-03-27T06:59:04.707Z,8.94
2019-03-27T07:00:10.219Z,8.93
2019-03-27T07:01:15.725Z,8.94
2019-03-27T07:02:21.230Z,8.88
2019-03-27T07:03:26.737Z,8.87
2019-03-27T07:04:32.254Z,8.88
2019-03-27T07:05:37.758Z,9.04
2019-03-27T07:06:43.259Z,8.97
2019-03-27T07:07:48.776Z,8.99
2019-03-27T07:08:54.284Z,8.96
2019-03-27T07:09:59.786Z,9.02
2019-03-27T07:11:05.296Z,9.02
2019-03-27T07:12:20.940Z,9.04
2019-03-27T07:13:16.306Z,9.05
2019-03-27T07:14:21.816Z,9.06
2019-03-27T07:15:27.326Z,9.06
2019-03-27T07:16:32.830Z,9.12
2019-03-27T07:17:38.349Z,9.05
2019-03-27T07:18:43.847Z,9.10
2019-03-27T07:19:49.358Z,9.12
2019-03-27T07:20:54.869Z,9.16
2019-03-27T07:22:00.374Z,9.16
2019-03-27T07:23:05.881Z,9.27
2019-03-27T07:24:11.393Z,9.28
2019-03-27T07:25:16.899Z,9.28
2019-03-27T07:26:22.407Z,9.27
2019-03-27T07:27:27.916Z,9.30
2019-03-27T07:28:33.424Z,9.32
2019-03-27T07:29:38.925Z,9.31
2019-03-27T07:30:44.446Z,9.30
2019-03-27T07:31:49.949Z,9.32
2019-03-27T07:32:55.464Z,9.30
2019-03-27T07:34:00.966Z,9.32
2019-03-27T07:35:06.521Z,9.34
2019-03-27T07:36:11.988Z,9.31
2019-03-27T07:37:17.505Z,9.39
2019-03-27T07:38:23.003Z,9.38
2019-03-27T07:39:28.505Z,9.52
2019-03-27T07:40:34.016Z,9.48
2019-03-27T07:41:39.526Z,9.49
2019-03-27T07:42:45.033Z,9.50
2019-03-27T07:43:50.539Z,9.50
2019-03-27T07:44:56.054Z,9.58
2019-03-27T07:46:01.558Z,9.56
2019-03-27T07:47:07.071Z,9.56
2019-03-27T07:48:12.578Z,9.53
2019-03-27T07:49:18.084Z,9.61
2019-03-27T07:50:23.594Z,9.67
2019-03-27T07:51:29.103Z,9.79
2019-03-27T07:52:34.605Z,9.85
2019-03-27T07:53:40.114Z,9.82
2019-03-27T07:54:45.629Z,9.82
2019-03-27T07:55:51.141Z,9.88
2019-03-27T07:56:56.642Z,9.93
2019-03-27T07:58:02.146Z,9.93
2019-03-27T07:59:07.662Z,9.99
2019-03-27T08:00:13.178Z,10.00
2019-03-27T08:01:18.670Z,10.03
2019-03-27T08:02:24.182Z,10.04
2019-03-27T08:03:29.704Z,10.07
2019-03-27T08:04:35.205Z,10.06
2019-03-27T08:05:40.708Z,10.01
2019-03-27T08:06:46.223Z,10.09
2019-03-27T08:07:51.726Z,10.04
2019-03-27T08:08:57.238Z,10.15
2019-03-27T08:10:02.742Z,10.21
2019-03-27T08:11:08.260Z,10.24
2019-03-27T08:12:13.817Z,10.18
2019-03-27T08:13:19.273Z,10.26
2019-03-27T08:14:24.790Z,10.30
2019-03-27T08:15:30.300Z,10.30
2019-03-27T08:16:35.802Z,10.32
2019-03-27T08:17:41.318Z,10.37
2019-03-27T08:18:46.818Z,10.34
2019-03-27T08:19:52.324Z,10.52
2019-03-27T08:20:57.835Z,10.58
2019-03-27T08:22:03.351Z,10.52
2019-03-27T08:23:08.859Z,10.56
2019-03-27T08:24:14.368Z,10.74
2019-03-27T08:25:19.876Z,10.76
2019-03-27T08:26:25.406Z,10.77
2019-03-27T08:27:30.892Z,10.68
2019-03-27T08:28:36.398Z,10.77
2019-03-27T08:29:41.911Z,10.74
2019-03-27T08:30:47.414Z,10.74
2019-03-27T08:31:52.920Z,10.81
2019-03-27T08:32:58.442Z,10.81
2019-03-27T08:34:03.950Z,10.88
2019-03-27T08:35:09.451Z,10.83
2019-03-27T08:36:14.965Z,10.83
2019-03-27T08:37:20.472Z,10.81
2019-03-27T08:38:25.978Z,10.89
2019-03-27T08:39:31.494Z,10.91
2019-03-27T08:40:37.002Z,10.88
2019-03-27T08:41:42.511Z,10.92
2019-03-27T08:42:48.015Z,10.88
2019-03-27T08:43:53.529Z,10.94
2019-03-27T08:44:59.042Z,10.98
2019-03-27T08:46:04.543Z,11.06
2019-03-27T08:47:10.046Z,10.99
2019-03-27T08:48:15.560Z,11.09
2019-03-27T08:49:22.423Z,11.19
2019-03-27T08:50:26.580Z,11.21
2019-03-27T08:51:32.092Z,11.34
2019-03-27T08:52:37.599Z,11.34
2019-03-27T08:53:43.115Z,11.39
2019-03-27T08:54:48.620Z,11.39
2019-03-27T08:55:54.127Z,11.53
2019-03-27T08:56:59.643Z,11.52
2019-03-27T08:58:05.149Z,11.50
2019-03-27T08:59:10.661Z,11.47
2019-03-27T09:00:16.164Z,11.41
2019-03-27T09:01:21.680Z,11.39
2019-03-27T09:02:27.193Z,11.38
2019-03-27T09:03:32.698Z,11.38
2019-03-27T09:04:38.216Z,11.43
2019-03-27T09:05:43.726Z,11.41
2019-03-27T09:06:49.225Z,11.27
2019-03-27T09:07:54.731Z,11.28
2019-03-27T09:09:00.243Z,11.17
2019-03-27T09:10:05.754Z,11.17
2019-03-27T09:11:11.268Z,11.16
2019-03-27T09:12:16.763Z,11.13
2019-03-27T09:13:22.280Z,11.31
2019-03-27T09:14:27.792Z,11.35
2019-03-27T09:15:33.303Z,11.39
2019-03-27T09:16:38.803Z,11.43
2019-03-27T09:17:44.316Z,11.41
2019-03-27T09:18:49.833Z,11.53
2019-03-27T09:19:55.342Z,11.57
2019-03-27T09:21:00.846Z,11.62
2019-03-27T09:22:06.359Z,11.61
2019-03-27T09:23:11.874Z,11.64
2019-03-27T09:24:17.383Z,11.72
2019-03-27T09:25:22.884Z,11.78
2019-03-27T09:26:28.407Z,11.83
2019-03-27T09:27:33.908Z,11.80
2019-03-27T09:28:39.423Z,11.74
2019-03-27T09:29:45.005Z,11.61
2019-03-27T09:30:50.435Z,11.62
2019-03-27T09:31:55.948Z,11.57
2019-03-27T09:33:01.459Z,11.59
2019-03-27T09:34:06.965Z,11.56
2019-03-27T09:35:12.500Z,11.50
2019-03-27T09:36:17.988Z,11.54
2019-03-27T09:37:23.496Z,11.43
2019-03-27T09:38:29.006Z,11.41
2019-03-27T09:39:34.516Z,11.52
2019-03-27T09:40:40.027Z,11.46
2019-03-27T09:41:45.544Z,11.56
2019-03-27T09:42:51.050Z,11.61
2019-03-27T09:43:56.551Z,11.82
2019-03-27T09:45:02.068Z,11.85
2019-03-27T09:46:07.574Z,11.90
2019-03-27T09:47:13.096Z,11.94
2019-03-27T09:48:18.594Z,12.09
2019-03-27T09:49:24.104Z,12.09
2019-03-27T09:50:29.643Z,12.11
2019-03-27T09:51:35.124Z,12.11
2019-03-27T09:52:40.631Z,12.05
2019-03-27T09:53:46.145Z,12.08
2019-03-27T09:54:51.648Z,11.97
2019-03-27T09:55:57.160Z,12.01
2019-03-27T09:57:02.677Z,12.05
2019-03-27T09:58:08.186Z,12.19
2019-03-27T09:59:13.691Z,12.15
2019-03-27T10:00:19.211Z,12.08
2019-03-27T10:01:24.732Z,12.11
2019-03-27T10:02:30.224Z,12.09
2019-03-27T10:03:35.734Z,12.06
2019-03-27T10:04:41.242Z,12.11
2019-03-27T10:05:46.756Z,12.06
2019-03-27T10:06:52.265Z,12.16
2019-03-27T10:07:57.773Z,12.27
2019-03-27T10:09:03.284Z,12.30
2019-03-27T10:10:08.795Z,12.56
2019-03-27T10:11:14.301Z,12.59
2019-03-27T10:12:19.832Z,12.74
2019-03-27T10:13:25.331Z,12.69
2019-03-27T10:14:30.832Z,12.75
2019-03-27T10:15:36.349Z,12.79
2019-03-27T10:16:41.853Z,12.88
2019-03-27T10:17:47.371Z,12.82
2019-03-27T10:18:52.874Z,12.77
2019-03-27T10:20:03.707Z,12.77
2019-03-27T10:21:03.908Z,12.70
2019-03-27T10:22:09.407Z,12.75
2019-03-27T10:23:14.918Z,12.63
2019-03-27T10:24:20.426Z,12.66
2019-03-27T10:25:25.935Z,12.78
2019-03-27T10:26:31.451Z,12.79
2019-03-27T10:27:36.962Z,12.81
2019-03-27T10:28:42.468Z,12.82
2019-03-27T10:29:47.981Z,12.99
2019-03-27T10:30:53.509Z,12.95
2019-03-27T10:31:59.003Z,13.14
2019-03-27T10:33:04.514Z,13.20
2019-03-27T10:34:10.026Z,13.27
2019-03-27T10:35:15.541Z,13.43
2019-03-27T10:36:21.036Z,13.36
2019-03-27T10:37:26.558Z,13.44
2019-03-27T10:38:32.063Z,13.51
2019-03-27T10:39:37.578Z,13.59
2019-03-27T10:40:43.109Z,13.73
2019-03-27T10:41:48.608Z,13.74
2019-03-27T10:42:54.104Z,13.92
2019-03-27T10:43:59.704Z,13.94
2019-03-27T10:45:05.140Z,13.92
2019-03-27T10:46:10.641Z,13.88
2019-03-27T10:47:16.149Z,13.95
2019-03-27T10:48:21.661Z,13.91
2019-03-27T10:49:27.179Z,13.94
2019-03-27T10:50:32.689Z,13.96
2019-03-27T10:51:38.197Z,13.88
2019-03-27T10:52:43.709Z,13.99
2019-03-27T10:53:49.216Z,13.91
2019-03-27T10:54:54.732Z,13.87
2019-03-27T10:56:00.237Z,13.95
2019-03-27T10:57:05.741Z,13.96
2019-03-27T10:58:11.262Z,13.94
2019-03-27T10:59:16.775Z,13.91
2019-03-27T11:00:22.280Z,13.87
2019-03-27T11:01:27.793Z,13.95
2019-03-27T11:02:33.310Z,13.95
2019-03-27T11:03:38.819Z,13.98
2019-03-27T11:04:44.324Z,13.81
2019-03-27T11:05:49.848Z,13.79
2019-03-27T11:06:55.349Z,13.79
2019-03-27T11:08:00.864Z,13.73
2019-03-27T11:09:06.384Z,13.69
2019-03-27T11:10:11.889Z,13.51
2019-03-27T11:11:17.405Z,13.44
2019-03-27T11:12:22.908Z,13.37
2019-03-27T11:13:28.416Z,13.36
2019-03-27T11:14:38.038Z,13.40
2019-03-27T11:15:39.432Z,13.37
2019-03-27T11:16:44.956Z,13.40
2019-03-27T11:17:50.458Z,13.32
2019-03-27T11:18:55.977Z,13.43
2019-03-27T11:20:01.498Z,13.52
2019-03-27T11:21:06.992Z,13.52
2019-03-27T11:22:12.528Z,13.63
2019-03-27T11:23:18.016Z,13.79
2019-03-27T11:24:23.534Z,13.94
2019-03-27T11:25:29.045Z,14.04
2019-03-27T11:26:34.557Z,13.99
2019-03-27T11:27:40.065Z,13.98
2019-03-27T11:28:45.572Z,13.94
2019-03-27T11:29:51.096Z,13.84
2019-03-27T11:30:56.587Z,13.80
2019-03-27T11:32:02.108Z,13.80
2019-03-27T11:33:07.628Z,13.74
2019-03-27T11:34:13.131Z,13.77
2019-03-27T11:35:18.644Z,13.88
2019-03-27T11:36:24.152Z,14.02
2019-03-27T11:37:29.680Z,14.25
2019-03-27T11:38:37.551Z,14.32
2019-03-27T11:39:40.691Z,14.43
2019-03-27T11:40:46.193Z,14.39
2019-03-27T11:41:51.705Z,14.39
2019-03-27T11:42:57.221Z,14.29
2019-03-27T11:44:02.741Z,14.21
2019-03-27T11:45:08.251Z,14.25
2019-03-27T11:46:13.771Z,14.29
2019-03-27T11:47:19.264Z,14.21
2019-03-27T11:48:24.777Z,14.06
2019-03-27T11:49:30.280Z,13.99
2019-03-27T11:50:44.670Z,14.04
2019-03-27T11:51:41.307Z,14.06
2019-03-27T11:52:46.822Z,13.99
2019-03-27T11:53:52.331Z,13.98
2019-03-27T11:54:57.843Z,13.96
2019-03-27T11:56:03.630Z,13.89
2019-03-27T11:57:08.868Z,13.91
2019-03-27T11:58:15.008Z,13.88
2019-03-27T11:59:19.888Z,13.77
2019-03-27T12:00:25.400Z,13.77
2019-03-27T12:01:40.605Z,13.79
2019-03-27T12:02:36.424Z,13.80
2019-03-27T12:03:41.934Z,13.76
2019-03-27T12:04:47.441Z,13.83
2019-03-27T12:05:52.961Z,13.79
2019-03-27T12:06:58.476Z,13.80
2019-03-27T12:08:03.977Z,13.92
2019-03-27T12:09:09.493Z,13.89
2019-03-27T12:10:14.997Z,13.91
2019-03-27T12:11:20.517Z,13.98
2019-03-27T12:12:26.021Z,14.16
2019-03-27T12:13:31.542Z,14.31
2019-03-27T12:14:37.057Z,14.46
2019-03-27T12:15:42.556Z,14.49
2019-03-27T12:16:50.009Z,14.60
2019-03-27T12:17:53.589Z,14.60
2019-03-27T12:18:59.093Z,14.68
2019-03-27T12:20:04.623Z,14.71
2019-03-27T12:21:10.112Z,14.86
2019-03-27T12:22:15.625Z,14.86
2019-03-27T12:23:21.130Z,14.86
2019-03-27T12:24:28.637Z,14.84
2019-03-27T12:25:32.169Z,14.81
2019-03-27T12:26:37.668Z,14.74
2019-03-27T12:27:43.186Z,14.87
2019-03-27T12:28:48.703Z,14.87
2019-03-27T12:29:54.214Z,14.84
2019-03-27T12:30:59.721Z,14.86
2019-03-27T12:32:05.232Z,14.86
2019-03-27T12:33:10.746Z,14.90
2019-03-27T12:34:16.261Z,14.98
2019-03-27T12:35:21.769Z,14.98
2019-03-27T12:36:27.286Z,15.03
2019-03-27T12:37:32.780Z,15.06
2019-03-27T12:38:38.310Z,15.17
2019-03-27T12:39:43.811Z,15.21
2019-03-27T12:40:49.325Z,15.15
2019-03-27T12:41:54.842Z,15.24
2019-03-27T12:43:00.356Z,15.35
2019-03-27T12:44:05.861Z,15.30
2019-03-27T12:45:11.383Z,15.33
2019-03-27T12:46:16.893Z,15.36
2019-03-27T12:47:22.409Z,15.33
2019-03-27T12:48:27.914Z,15.36
2019-03-27T12:49:33.424Z,15.36
2019-03-27T12:50:38.938Z,15.43
2019-03-27T12:51:44.465Z,15.41
2019-03-27T12:52:49.960Z,15.54
2019-03-27T12:53:55.475Z,15.52
2019-03-27T12:55:00.999Z,15.61
2019-03-27T12:56:06.497Z,15.66
2019-03-27T12:57:12.012Z,15.67
2019-03-27T12:58:17.525Z,15.68
2019-03-27T12:59:23.090Z,15.75
2019-03-27T13:00:28.574Z,15.76
2019-03-27T13:01:34.063Z,15.82
2019-03-27T13:02:39.573Z,15.82
2019-03-27T13:03:45.181Z,16.00
2019-03-27T13:04:50.600Z,16.06
2019-03-27T13:05:56.118Z,16.11
2019-03-27T13:07:01.631Z,16.11
2019-03-27T13:08:07.146Z,16.25
2019-03-27T13:09:12.672Z,16.40
2019-03-27T13:10:18.164Z,16.40
2019-03-27T13:11:23.673Z,16.44
2019-03-27T13:12:29.184Z,16.45
2019-03-27T13:13:34.700Z,16.34
2019-03-27T13:14:40.212Z,16.38
2019-03-27T13:15:45.731Z,16.48
2019-03-27T13:16:52.413Z,16.41
2019-03-27T13:17:56.752Z,16.49
2019-03-27T13:19:02.273Z,16.35
2019-03-27T13:20:07.784Z,16.40
2019-03-27T13:21:25.534Z,16.41
2019-03-27T13:22:18.825Z,16.37
2019-03-27T13:23:24.318Z,16.34
2019-03-27T13:24:29.834Z,16.30
2019-03-27T13:25:35.353Z,16.25
2019-03-27T13:26:40.862Z,16.23
2019-03-27T13:27:47.604Z,16.23
2019-03-27T13:28:51.893Z,16.20
2019-03-27T13:29:57.402Z,16.07
2019-03-27T13:31:02.918Z,16.07
2019-03-27T13:32:08.425Z,15.94
2019-03-27T13:33:13.933Z,15.96
2019-03-27T13:34:19.454Z,15.85
2019-03-27T13:35:24.970Z,15.76
2019-03-27T13:36:30.476Z,15.78
2019-03-27T13:37:35.985Z,15.70
2019-03-27T13:38:41.506Z,15.61
2019-03-27T13:39:47.015Z,15.57
2019-03-27T13:40:52.530Z,15.49
2019-03-27T13:41:58.039Z,15.41
2019-03-27T13:43:03.559Z,15.43
2019-03-27T13:44:09.068Z,15.78
2019-03-27T13:45:14.578Z,16.62
2019-03-27T13:46:20.093Z,17.85
2019-03-27T13:47:25.605Z,18.68
2019-03-27T13:48:31.126Z,19.53
2019-03-27T13:49:36.633Z,20.27
2019-03-27T13:50:42.144Z,20.56
2019-03-27T13:51:47.661Z,20.38
2019-03-27T13:52:53.177Z,21.08
2019-03-27T13:53:58.694Z,21.59
2019-03-27T13:55:04.198Z,21.71
2019-03-27T13:56:09.720Z,21.59
2019-03-27T13:57:15.245Z,21.34
2019-03-27T13:58:20.755Z,20.98
2019-03-27T13:59:26.270Z,20.58
2019-03-27T14:00:31.786Z,20.16
2019-03-27T14:01:37.299Z,19.78
2019-03-27T14:02:42.831Z,19.50
2019-03-27T14:03:48.345Z,19.23
2019-03-27T14:04:53.849Z,18.91
2019-03-27T14:05:59.379Z,18.64
2019-03-27T14:07:04.879Z,18.39
2019-03-27T14:08:10.395Z,18.15
2019-03-27T14:09:15.925Z,18.02
2019-03-27T14:10:21.435Z,17.91
2019-03-27T14:11:26.946Z,17.73
2019-03-27T14:12:32.457Z,17.59
2019-03-27T14:13:37.978Z,17.35
2019-03-27T14:14:50.174Z,17.35
2019-03-27T14:15:49.000Z,17.14
2019-03-27T14:16:54.514Z,17.03
2019-03-27T14:18:00.039Z,16.89
2019-03-27T14:19:05.553Z,16.81